Time;durP1;ratioP1;P1;durP2;ratioP2;P2;SDS_P1;SDS_P2;PMS_P1;PMS_P2;Temp;Humidity;BMP_temperature;BMP_pressure;BME280_temperature;BME280_humidity;BME280_pressure;Samples;Min_cycle;Max_cycle;Signal;HPM_P1;HPM_P2
2021/08/18 00:00:40;;;;;;;10.02;4.18;;;;;;;13.64;100.00;101118.50;6273763;28;20132;-80
2021/08/18 00:03:41;;;;;;;7.82;3.83;;;;;;;13.61;100.00;101116.03;6273426;28;20492;-77
2021/08/18 00:06:43;;;;;;;9.30;3.78;;;;;;;13.58;100.00;101115.38;6273652;28;20052;-77
2021/08/18 00:09:44;;;;;;;5.28;3.33;;;;;;;13.55;100.00;101116.41;6273228;28;20412;-77
2021/08/18 00:12:45;;;;;;;5.78;3.40;;;;;;;13.52;100.00;101113.94;6273587;28;20041;-79
2021/08/18 00:15:48;;;;;;;5.25;3.40;;;;;;;13.49;100.00;101105.34;6273679;28;20052;-79
2021/08/18 00:18:52;;;;;;;4.00;2.75;;;;;;;13.46;100.00;101114.31;6273830;28;20492;-77
2021/08/18 00:21:53;;;;;;;5.72;3.20;;;;;;;13.43;100.00;101110.06;6273647;28;20054;-78
2021/08/18 00:24:55;;;;;;;5.60;3.45;;;;;;;13.42;100.00;101105.72;6274319;28;20045;-78
2021/08/18 00:27:56;;;;;;;6.95;3.60;;;;;;;13.42;100.00;101102.25;6273472;28;20412;-79
2021/08/18 00:30:59;;;;;;;7.35;3.35;;;;;;;13.41;100.00;101106.69;6272962;28;20060;-75
2021/08/18 00:34:00;;;;;;;6.50;3.00;;;;;;;13.43;100.00;101103.94;6272714;28;20049;-79
2021/08/18 00:37:01;;;;;;;6.22;3.50;;;;;;;13.48;100.00;101095.75;6273342;28;20054;-79
2021/08/18 00:40:04;;;;;;;8.15;3.63;;;;;;;13.47;100.00;101094.91;6273717;28;20408;-79
2021/08/18 00:43:05;;;;;;;5.78;3.53;;;;;;;13.55;100.00;101090.00;6273117;28;20049;-79
2021/08/18 00:46:08;;;;;;;7.63;4.32;;;;;;;13.54;100.00;101095.41;6273020;28;20056;-78
2021/08/18 00:49:10;;;;;;;8.95;3.97;;;;;;;13.58;100.00;101087.19;6272316;28;20076;-78
2021/08/18 00:52:11;;;;;;;5.80;3.50;;;;;;;13.57;100.00;101081.97;6272663;28;20056;-76
2021/08/18 00:55:15;;;;;;;6.28;3.53;;;;;;;13.58;100.00;101075.75;6272673;28;20085;-77
2021/08/18 00:58:17;;;;;;;7.15;3.67;;;;;;;13.62;100.00;101077.28;6272308;28;20048;-77
2021/08/18 01:01:19;;;;;;;7.85;4.25;;;;;;;13.62;100.00;101074.63;6271711;28;20798;-77
2021/08/18 01:04:21;;;;;;;7.07;3.78;;;;;;;13.59;100.00;101073.03;6272124;28;20052;-77
2021/08/18 01:07:22;;;;;;;6.45;2.92;;;;;;;13.60;100.00;101077.38;6271879;28;20053;-77
2021/08/18 01:10:25;;;;;;;7.07;3.55;;;;;;;13.63;100.00;101068.44;6271969;28;20135;-78
2021/08/18 01:13:28;;;;;;;5.55;3.40;;;;;;;13.62;100.00;101072.00;6271929;28;20052;-76
2021/08/18 01:16:33;;;;;;;6.63;3.25;;;;;;;13.65;100.00;101075.28;6271849;28;20076;-78
2021/08/18 01:19:34;;;;;;;7.45;4.25;;;;;;;13.61;100.00;101071.13;6272247;28;20052;-78
2021/08/18 01:22:36;;;;;;;8.27;2.85;;;;;;;13.62;100.00;101066.72;6271599;28;20488;-77
2021/08/18 01:25:38;;;;;;;6.22;3.55;;;;;;;13.64;100.00;101072.75;6272165;28;20048;-78
2021/08/18 01:28:41;;;;;;;6.30;3.53;;;;;;;13.68;100.00;101075.13;6272015;28;20053;-78
2021/08/18 01:31:43;;;;;;;7.72;3.83;;;;;;;13.68;100.00;101075.13;6272158;28;20060;-78
2021/08/18 01:34:44;;;;;;;6.32;3.53;;;;;;;13.68;100.00;101076.91;6271645;28;20459;-77
2021/08/18 01:37:46;;;;;;;13.43;4.50;;;;;;;13.67;100.00;101076.06;6271942;28;20488;-78
2021/08/18 01:40:51;;;;;;;6.82;3.45;;;;;;;13.67;100.00;101078.72;6272120;28;20045;-79
2021/08/18 01:43:54;;;;;;;6.10;3.13;;;;;;;13.69;100.00;101082.09;6271525;28;20522;-78
2021/08/18 01:46:55;;;;;;;7.78;4.43;;;;;;;13.70;100.00;101080.31;6272195;28;20053;-78
2021/08/18 01:49:56;;;;;;;6.95;3.53;;;;;;;13.69;100.00;101084.75;6271921;28;20053;-78
2021/08/18 01:52:58;;;;;;;7.63;3.60;;;;;;;13.71;100.00;101084.63;6271534;28;20045;-78
2021/08/18 01:56:01;;;;;;;5.47;3.65;;;;;;;13.73;100.00;101080.13;6273698;28;20056;-78
2021/08/18 01:59:04;;;;;;;6.45;3.53;;;;;;;13.72;100.00;101075.78;6277039;28;20045;-78
2021/08/18 02:02:05;;;;;;;8.07;4.22;;;;;;;13.70;100.00;101075.88;6277115;28;20056;-78
2021/08/18 02:05:08;;;;;;;7.93;3.72;;;;;;;13.74;100.00;101073.88;6276984;28;20045;-78
2021/08/18 02:08:09;;;;;;;6.53;3.58;;;;;;;13.76;100.00;101076.44;6276763;28;20423;-79
2021/08/18 02:11:12;;;;;;;6.88;3.90;;;;;;;13.73;100.00;101066.91;6277182;28;20053;-77
2021/08/18 02:14:14;;;;;;;7.47;3.72;;;;;;;13.75;100.00;101070.31;6276399;28;20052;-79
2021/08/18 02:17:16;;;;;;;7.55;3.95;;;;;;;13.75;100.00;101075.59;6276860;28;20045;-78
2021/08/18 02:20:19;;;;;;;6.88;3.85;;;;;;;13.77;100.00;101078.16;6276537;28;20056;-78
2021/08/18 02:23:21;;;;;;;8.07;4.25;;;;;;;13.78;100.00;101072.75;6276704;28;20041;-79
2021/08/18 02:26:22;;;;;;;7.57;4.55;;;;;;;13.78;100.00;101064.84;6276585;28;20054;-79
2021/08/18 02:29:25;;;;;;;9.48;4.88;;;;;;;13.77;100.00;101065.78;6276352;28;20048;-78
2021/08/18 02:32:26;;;;;;;6.57;3.72;;;;;;;13.77;100.00;101067.59;6276218;28;20049;-78
2021/08/18 02:35:28;;;;;;;7.90;4.22;;;;;;;13.77;100.00;101067.59;6275829;28;20052;-78
2021/08/18 02:38:29;;;;;;;8.98;4.68;;;;;;;13.75;100.00;101058.88;6276740;28;20056;-77
2021/08/18 02:41:31;;;;;;;8.52;4.38;;;;;;;13.74;100.00;101058.03;6276091;28;20064;-79
2021/08/18 02:44:34;;;;;;;6.55;4.03;;;;;;;13.75;100.00;101053.59;6275668;28;20079;-79
2021/08/18 02:47:35;;;;;;;6.32;3.90;;;;;;;13.75;100.00;101051.81;6275363;28;20392;-78
2021/08/18 02:50:37;;;;;;;6.70;3.88;;;;;;;13.77;100.00;101055.22;6275830;28;20056;-78
2021/08/18 02:53:38;;;;;;;10.75;4.28;;;;;;;13.76;100.00;101042.94;6274883;28;20045;-77
2021/08/18 02:56:39;;;;;;;9.23;3.75;;;;;;;13.75;100.00;101043.88;6264666;28;20051;-79
2021/08/18 02:59:42;;;;;;;6.05;4.13;;;;;;;13.73;100.00;101043.16;6271940;28;20053;-79
2021/08/18 03:02:44;;;;;;;9.23;4.80;;;;;;;13.75;100.00;101043.03;6271113;28;20052;-78
2021/08/18 03:05:45;;;;;;;12.80;4.25;;;;;;;13.81;100.00;101045.31;6272994;28;20515;-78
2021/08/18 03:08:47;;;;;;;7.28;3.63;;;;;;;13.75;100.00;101041.25;6273954;28;20055;-78
2021/08/18 03:11:48;;;;;;;7.05;4.00;;;;;;;13.77;100.00;101041.16;6274777;28;20057;-78
2021/08/18 03:14:51;;;;;;;5.63;3.45;;;;;;;13.78;100.00;101038.41;6270770;28;20044;-78
2021/08/18 03:17:52;;;;;;;7.57;3.85;;;;;;;13.80;100.00;101035.66;6274764;28;20049;-79
2021/08/18 03:20:54;;;;;;;8.02;4.32;;;;;;;13.78;100.00;101033.13;6274293;28;20049;-79
2021/08/18 03:23:55;;;;;;;8.88;4.40;;;;;;;13.76;100.00;101032.38;6274702;28;20049;-77
2021/08/18 03:26:56;;;;;;;6.40;3.75;;;;;;;13.81;100.00;101032.97;6274836;28;20049;-78
2021/08/18 03:29:59;;;;;;;10.20;4.38;;;;;;;13.80;100.00;101028.59;6274992;28;20052;-77
2021/08/18 03:33:00;;;;;;;6.13;4.03;;;;;;;13.75;100.00;101024.56;6274245;28;20060;-78
2021/08/18 03:36:02;;;;;;;10.10;3.95;;;;;;;13.72;100.00;101025.59;6268833;28;20452;-78
2021/08/18 03:39:03;;;;;;;7.20;3.63;;;;;;;13.76;100.00;101031.53;6274658;28;20045;-76
2021/08/18 03:42:05;;;;;;;7.18;3.97;;;;;;;13.73;100.00;101026.44;6274267;28;20064;-78
2021/08/18 03:45:09;;;;;;;7.10;3.70;;;;;;;13.71;100.00;101027.38;6274484;28;20041;-78
2021/08/18 03:48:11;;;;;;;8.38;4.38;;;;;;;13.70;100.00;101020.41;6273991;28;20419;-77
2021/08/18 03:51:12;;;;;;;8.05;3.65;;;;;;;13.67;100.00;101019.72;6273810;28;20500;-77
2021/08/18 03:54:13;;;;;;;7.78;3.78;;;;;;;13.68;100.00;101024.09;6273753;28;20057;-76
2021/08/18 03:57:15;;;;;;;6.93;4.03;;;;;;;13.69;100.00;101020.50;6274154;28;20048;-78
2021/08/18 04:00:18;;;;;;;6.43;3.90;;;;;;;13.73;100.00;101031.72;6274304;28;20052;-78
2021/08/18 04:03:19;;;;;;;7.40;3.53;;;;;;;13.77;100.00;101027.97;6274384;28;20052;-79
2021/08/18 04:06:21;;;;;;;5.88;3.00;;;;;;;13.82;100.00;101034.66;6273997;28;20052;-79
2021/08/18 04:09:22;;;;;;;7.22;3.10;;;;;;;13.81;100.00;101040.88;6273578;28;20051;-79
2021/08/18 04:12:24;;;;;;;5.57;2.88;;;;;;;13.78;100.00;101050.78;6273499;28;20421;-79
2021/08/18 04:15:28;;;;;;;5.55;2.75;;;;;;;13.85;100.00;101046.81;6273465;28;20042;-80
2021/08/18 04:18:30;;;;;;;5.85;3.50;;;;;;;13.84;100.00;101048.59;6273146;28;20053;-79
2021/08/18 04:21:31;;;;;;;5.60;3.05;;;;;;;13.87;100.00;101058.13;6273326;28;20072;-80
2021/08/18 04:24:33;;;;;;;5.50;3.20;;;;;;;13.89;100.00;101048.31;6273244;28;20500;-80
2021/08/18 04:27:34;;;;;;;6.55;3.40;;;;;;;13.86;100.00;101052.00;6245126;28;20054;-80
2021/08/18 04:30:37;;;;;;;4.95;2.67;;;;;;;13.82;100.00;101054.94;6234921;28;20050;-80
2021/08/18 04:33:38;;;;;;;5.80;2.92;;;;;;;13.82;100.00;101044.38;6235492;28;20374;-77
2021/08/18 04:36:40;;;;;;;5.75;3.03;;;;;;;13.79;100.00;101053.31;6234568;28;20053;-81
2021/08/18 04:39:41;;;;;;;8.32;3.40;;;;;;;13.76;100.00;101053.50;6242506;28;20045;-80
2021/08/18 04:42:48;;;;;;;4.57;3.00;;;;;;;13.77;100.00;101064.94;6237071;28;20053;-78
2021/08/18 04:45:52;;;;;;;4.68;3.15;;;;;;;13.77;100.00;101057.88;6223290;28;20497;-80
2021/08/18 04:48:54;;;;;;;5.30;3.13;;;;;;;13.77;100.00;101067.59;6223804;28;20501;-78
2021/08/18 04:51:55;;;;;;;6.65;3.47;;;;;;;13.77;100.00;101055.22;6223451;28;20429;-80
2021/08/18 04:54:56;;;;;;;5.70;2.70;;;;;;;13.77;100.00;101051.72;6223122;28;20045;-78
2021/08/18 04:57:58;;;;;;;5.22;2.65;;;;;;;13.78;100.00;101049.00;6229217;28;20053;-79
2021/08/18 05:01:00;;;;;;;5.35;3.08;;;;;;;13.73;100.00;101042.31;6236890;28;20060;-79
2021/08/18 05:04:03;;;;;;;5.28;2.95;;;;;;;13.77;100.00;101033.25;6248265;28;20056;-79
2021/08/18 05:07:04;;;;;;;5.18;2.92;;;;;;;13.67;100.00;101032.94;6245093;28;20120;-80
2021/08/18 05:10:07;;;;;;;4.72;2.95;;;;;;;13.69;100.00;101037.19;6239089;28;20049;-78
2021/08/18 05:13:08;;;;;;;6.10;2.67;;;;;;;13.62;100.00;101035.00;6250254;28;20128;-79
2021/08/18 05:16:11;;;;;;;4.50;2.35;;;;;;;13.69;100.00;101044.28;6254665;28;20049;-79
2021/08/18 05:19:12;;;;;;;3.90;2.47;;;;;;;13.66;100.00;101039.16;6272455;28;20060;-78
2021/08/18 05:22:14;;;;;;;3.83;2.10;;;;;;;13.65;100.00;101035.69;6272481;28;20049;-77
2021/08/18 05:25:17;;;;;;;4.95;3.30;;;;;;;13.69;100.00;101034.56;6272112;28;20048;-77
2021/08/18 05:28:19;;;;;;;4.53;2.65;;;;;;;13.70;100.00;101023.03;6271932;28;20053;-77
2021/08/18 05:31:21;;;;;;;4.68;2.67;;;;;;;13.76;100.00;101028.88;6274964;28;20053;-78
2021/08/18 05:34:23;;;;;;;7.50;3.35;;;;;;;13.81;100.00;101038.25;6276949;28;20404;-76
2021/08/18 05:37:24;;;;;;;3.72;2.58;;;;;;;13.88;100.00;101031.63;6277476;28;20048;-80
2021/08/18 05:40:25;;;;;;;5.97;2.92;;;;;;;13.88;100.00;101038.69;6277397;28;20074;-78
2021/08/18 05:43:27;;;;;;;6.18;3.25;;;;;;;13.87;100.00;101039.66;6260359;28;20049;-78
2021/08/18 05:46:29;;;;;;;4.20;2.15;;;;;;;13.91;100.00;101039.34;6273756;28;20041;-81
2021/08/18 05:49:31;;;;;;;4.68;2.85;;;;;;;13.92;100.00;101030.47;6276932;28;20420;-80
2021/08/18 05:52:32;;;;;;;7.50;3.78;;;;;;;13.92;100.00;101019.06;6276644;28;20056;-77
2021/08/18 05:55:33;;;;;;;4.60;3.00;;;;;;;13.97;100.00;101022.25;6276888;28;20041;-77
2021/08/18 05:58:35;;;;;;;4.18;2.70;;;;;;;14.01;100.00;101026.41;6277311;28;20049;-80
2021/08/18 06:01:37;;;;;;;6.80;2.90;;;;;;;14.08;100.00;101024.22;6276208;28;20523;-76
2021/08/18 06:04:39;;;;;;;5.07;3.05;;;;;;;14.11;100.00;101022.22;6255918;28;20041;-77
2021/08/18 06:07:40;;;;;;;5.10;3.42;;;;;;;14.19;100.00;101027.03;6267172;28;20408;-77
2021/08/18 06:10:42;;;;;;;5.38;3.22;;;;;;;14.21;100.00;101033.91;6274342;28;20052;-77
2021/08/18 06:13:43;;;;;;;5.18;2.40;;;;;;;14.29;100.00;101035.22;6276411;28;20049;-80
2021/08/18 06:16:46;;;;;;;3.95;2.35;;;;;;;14.31;100.00;101038.63;6276412;28;20045;-76
2021/08/18 06:19:47;;;;;;;5.30;2.55;;;;;;;14.41;100.00;101031.78;6276166;28;20484;-81
2021/08/18 06:22:49;;;;;;;4.90;3.20;;;;;;;14.36;100.00;101029.44;6276033;28;20053;-81
2021/08/18 06:25:51;;;;;;;6.63;3.03;;;;;;;14.39;100.00;101036.31;6275754;28;20139;-79
2021/08/18 06:28:54;;;;;;;4.30;2.45;;;;;;;14.39;100.00;101033.69;6238874;28;20059;-76
2021/08/18 06:31:56;;;;;;;3.88;2.45;;;;;;;14.41;100.00;101039.72;6237500;28;20050;-78
2021/08/18 06:34:59;;;;;;;3.08;2.03;;;;;;;14.42;100.00;101036.97;6236776;28;20049;-78
2021/08/18 06:38:00;;;;;;;5.03;2.63;;;;;;;14.43;100.00;101035.19;6233379;28;20057;-80
2021/08/18 06:41:02;;;;;;;2.88;1.92;;;;;;;14.42;100.00;101038.78;6226289;28;20432;-79
2021/08/18 06:44:03;;;;;;;4.57;1.98;;;;;;;14.38;100.00;101040.75;6226328;28;20061;-77
2021/08/18 06:47:06;;;;;;;3.90;2.22;;;;;;;14.40;100.00;101043.34;6226640;28;20049;-79
2021/08/18 06:50:09;;;;;;;4.13;2.22;;;;;;;14.49;100.00;101049.81;6225883;28;20512;-79
2021/08/18 06:53:11;;;;;;;4.03;2.03;;;;;;;14.52;100.00;101063.69;6225525;28;20053;-78
2021/08/18 06:56:12;;;;;;;3.60;1.70;;;;;;;14.56;100.00;101051.13;6253808;22;20057;-80
2021/08/18 06:59:15;;;;;;;2.13;1.63;;;;;;;14.58;100.00;101059.81;6251318;28;20058;-79
2021/08/18 07:02:17;;;;;;;3.00;1.80;;;;;;;14.64;100.00;101054.97;6250426;28;20045;-79
2021/08/18 07:05:20;;;;;;;4.15;2.45;;;;;;;14.71;100.00;101050.13;6250600;28;20056;-77
2021/08/18 07:08:21;;;;;;;5.57;2.42;;;;;;;14.76;100.00;101045.41;6249339;28;20053;-79
2021/08/18 07:11:22;;;;;;;2.45;2.05;;;;;;;14.89;100.00;101032.19;6248870;28;20060;-78
2021/08/18 07:14:24;;;;;;;4.20;2.25;;;;;;;14.92;100.00;101039.94;6227288;28;20053;-80
2021/08/18 07:17:26;;;;;;;2.10;1.60;;;;;;;14.91;100.00;101040.88;6226717;28;20076;-77
2021/08/18 07:20:30;;;;;;;3.17;2.10;;;;;;;15.09;100.00;101044.94;6227748;28;20508;-80
2021/08/18 07:23:31;;;;;;;1.85;1.52;;;;;;;15.13;100.00;101051.72;6227198;28;20045;-78
2021/08/18 07:26:33;;;;;;;3.28;1.40;;;;;;;15.16;100.00;101050.66;6229753;28;20041;-78
2021/08/18 07:29:34;;;;;;;3.10;2.08;;;;;;;15.25;100.00;101050.03;6236843;28;20045;-79
2021/08/18 07:32:37;;;;;;;4.22;2.60;;;;;;;15.21;100.00;101045.91;6243081;28;20057;-79
2021/08/18 07:35:39;;;;;;;3.67;1.90;;;;;;;15.20;100.00;101049.50;6249416;28;20041;-80
2021/08/18 07:38:40;;;;;;;2.45;1.55;;;;;;;15.11;100.00;101072.13;6228200;28;20046;-75
2021/08/18 07:41:41;;;;;;;2.53;1.73;;;;;;;15.04;100.00;101060.28;6226055;28;20064;-79
2021/08/18 07:44:43;;;;;;;3.70;2.35;;;;;;;14.94;100.00;101062.69;6226727;28;20053;-79
2021/08/18 07:47:46;;;;;;;2.78;1.75;;;;;;;14.89;100.00;101061.28;6226620;28;20050;-80
2021/08/18 07:50:47;;;;;;;3.30;1.85;;;;;;;14.85;100.00;101050.09;6225906;28;20156;-80
2021/08/18 07:53:48;;;;;;;2.80;1.75;;;;;;;14.83;100.00;101059.91;6225039;28;20061;-80
2021/08/18 07:56:50;;;;;;;2.47;1.67;;;;;;;14.90;100.00;101050.63;6220014;28;20053;-80
2021/08/18 07:59:52;;;;;;;2.65;1.45;;;;;;;14.86;100.00;101053.56;6227993;28;20440;-80
2021/08/18 08:02:55;;;;;;;2.63;1.45;;;;;;;14.86;100.00;101051.78;6230305;28;20049;-81
2021/08/18 08:05:56;;;;;;;1.67;1.45;;;;;;;14.89;100.00;101064.78;6230080;28;20054;-80
2021/08/18 08:08:58;;;;;;;2.40;1.52;;;;;;;14.91;100.00;101065.53;6228456;28;20061;-76
2021/08/18 08:11:59;;;;;;;4.40;2.45;;;;;;;14.83;100.00;101074.94;6228773;28;20050;-79
2021/08/18 08:15:00;;;;;;;5.35;2.30;;;;;;;14.71;100.00;101074.78;6229966;28;20517;-79
2021/08/18 08:18:03;;;;;;;2.40;1.98;;;;;;;14.53;100.00;101083.06;6229626;28;20054;-79
2021/08/18 08:21:04;;;;;;;3.67;1.98;;;;;;;14.39;100.00;101081.28;6226305;28;20069;-79
2021/08/18 08:24:06;;;;;;;2.40;1.85;;;;;;;14.42;100.00;101078.44;6226352;28;20049;-77
2021/08/18 08:27:07;;;;;;;3.85;2.15;;;;;;;14.38;100.00;101082.22;6226548;28;20560;-78
2021/08/18 08:30:09;;;;;;;3.88;2.22;;;;;;;14.36;100.00;101068.28;6229893;28;20061;-77
2021/08/18 08:33:12;;;;;;;3.47;1.80;;;;;;;14.40;100.00;101073.25;6218738;28;20050;-77
2021/08/18 08:36:13;;;;;;;2.05;1.60;;;;;;;14.43;100.00;101080.13;6206371;28;20050;-77
2021/08/18 08:39:15;;;;;;;1.75;1.38;;;;;;;14.49;100.00;101078.91;6204297;28;20056;-78
2021/08/18 08:42:17;;;;;;;3.95;1.77;;;;;;;14.49;100.00;101087.72;6208359;28;20065;-80
2021/08/18 08:45:18;;;;;;;4.53;1.70;;;;;;;14.57;100.00;101077.47;6205770;28;20445;-79
2021/08/18 08:48:21;;;;;;;2.83;1.60;;;;;;;14.69;100.00;101075.84;6205830;28;20528;-80
2021/08/18 08:51:22;;;;;;;2.28;1.30;;;;;;;14.76;100.00;101073.63;6204666;28;20058;-79
2021/08/18 08:54:24;;;;;;;2.35;1.50;;;;;;;14.97;100.00;101070.41;6204615;28;20057;-80
2021/08/18 08:57:25;;;;;;;2.35;1.30;;;;;;;15.14;100.00;101065.81;6204143;28;20054;-80
2021/08/18 09:00:27;;;;;;;1.85;1.23;;;;;;;15.26;100.00;101065.00;6206973;28;20065;-80
2021/08/18 09:03:36;;;;;;;1.55;1.10;;;;;;;15.52;100.00;101072.94;6206565;28;20680;-81
2021/08/18 09:06:38;;;;;;;;;;;;;;;15.59;100.00;101061.81;6203797;28;20049;-82
2021/08/18 09:09:42;;;;;;;2.25;1.42;;;;;;;15.80;100.00;101061.28;6204336;28;20297;-77
2021/08/18 09:12:43;;;;;;;2.70;1.20;;;;;;;15.78;100.00;101061.41;6204993;28;20489;-80
2021/08/18 09:16:05;;;;;;;2.80;1.42;;;;;;;15.88;100.00;101059.81;6206165;28;20134;-81
2021/08/18 09:19:13;;;;;;;1.40;1.13;;;;;;;15.95;100.00;101060.22;6207547;28;20126;-82
2021/08/18 09:22:15;;;;;;;1.75;0.90;;;;;;;16.00;100.00;101074.00;6205169;28;20047;-82
2021/08/18 09:25:19;;;;;;;0.85;0.82;;;;;;;16.04;100.00;101067.53;6205827;28;20042;-78
2021/08/18 09:28:22;;;;;;;2.17;1.40;;;;;;;16.14;100.00;101067.72;6206606;28;20053;-78
2021/08/18 09:31:26;;;;;;;1.38;0.90;;;;;;;16.26;100.00;101068.63;6209399;28;20478;-86
2021/08/18 09:34:29;;;;;;;1.33;1.02;;;;;;;16.29;100.00;101068.41;6215473;28;20058;-83
2021/08/18 09:37:32;;;;;;;2.25;1.20;;;;;;;16.28;100.00;101058.78;6238891;28;20501;-77
2021/08/18 09:40:36;;;;;;;2.45;1.05;;;;;;;16.35;100.00;101067.97;6243375;28;20128;-80
2021/08/18 09:43:38;;;;;;;1.73;1.00;;;;;;;16.52;98.71;101072.06;6254765;28;20053;-80
2021/08/18 09:46:39;;;;;;;3.22;1.10;;;;;;;16.50;99.24;101064.22;6245384;28;20046;-83
2021/08/18 09:49:43;;;;;;;1.58;1.10;;;;;;;16.55;98.16;101058.56;6234439;28;20090;-79
2021/08/18 09:52:44;;;;;;;2.25;1.23;;;;;;;16.67;99.08;101057.69;6225888;28;20050;-78
2021/08/18 09:55:52;;;;;;;2.08;1.73;;;;;;;16.69;97.26;101064.53;6225982;28;20592;-79
2021/08/18 09:58:55;;;;;;;1.08;0.95;;;;;;;16.71;96.55;101057.34;6228746;28;20046;-84
2021/08/18 10:01:57;;;;;;;1.48;0.73;;;;;;;16.84;94.23;101053.78;6224688;28;20046;-84
2021/08/18 10:05:02;;;;;;;1.02;0.90;;;;;;;16.80;96.18;101053.16;6229812;28;20045;-78
2021/08/18 10:08:05;;;;;;;1.60;0.93;;;;;;;16.81;95.48;101051.38;6248715;28;20045;-78
2021/08/18 10:11:08;;;;;;;2.00;0.75;;;;;;;16.70;94.29;101052.13;6249141;28;20052;-79
2021/08/18 10:14:10;;;;;;;1.35;1.00;;;;;;;16.55;96.50;101055.91;6249805;28;20412;-80
2021/08/18 10:17:11;;;;;;;1.67;1.00;;;;;;;16.39;98.42;101062.31;6250874;28;20515;-75
2021/08/18 10:20:15;;;;;;;1.27;0.90;;;;;;;16.24;100.00;101074.06;6251230;28;20045;-78
2021/08/18 10:23:17;;;;;;;1.98;1.42;;;;;;;16.20;100.00;101070.75;6252606;28;20063;-78
2021/08/18 10:26:49;;;;;;;1.52;1.20;;;;;;;16.07;100.00;101087.66;6252657;28;20488;-79
2021/08/18 10:29:50;;;;;;;2.65;1.48;;;;;;;15.66;100.00;101086.09;6247057;28;20428;-78
2021/08/18 10:32:53;;;;;;;1.80;1.27;;;;;;;15.42;100.00;101086.81;6251948;28;20046;-75
2021/08/18 10:35:56;;;;;;;1.52;1.00;;;;;;;15.29;100.00;101085.09;6250153;28;20516;-76
2021/08/18 10:39:26;;;;;;;3.75;1.90;;;;;;;15.23;100.00;101079.28;6251305;28;20056;-77
2021/08/18 10:42:39;;;;;;;1.95;1.20;;;;;;;15.23;100.00;101058.09;6251568;28;20045;-77
2021/08/18 10:45:41;;;;;;;2.60;1.65;;;;;;;15.38;100.00;101053.53;6251979;28;20049;-76
2021/08/18 10:49:04;;;;;;;1.92;1.25;;;;;;;15.52;100.00;101047.28;6252793;28;20485;-77
2021/08/18 10:52:06;;;;;;;2.75;1.50;;;;;;;15.65;100.00;101055.28;6250065;28;20515;-75
2021/08/18 10:55:10;;;;;;;2.63;1.60;;;;;;;15.82;100.00;101059.41;6249608;28;20049;-77
2021/08/18 10:58:28;;;;;;;3.17;1.40;;;;;;;15.99;100.00;101061.72;6251659;28;20052;-77
2021/08/18 11:01:44;;;;;;;1.80;1.00;;;;;;;16.25;100.00;101057.16;6251015;28;20049;-80
2021/08/18 11:04:46;;;;;;;1.55;1.20;;;;;;;16.39;100.00;101050.88;6250846;28;20045;-78
2021/08/18 11:08:17;;;;;;;2.65;1.65;;;;;;;16.60;100.00;101056.41;6250776;28;20041;-76
2021/08/18 11:11:20;;;;;;;0.77;0.77;;;;;;;16.76;100.00;101057.03;6215398;28;20053;-79
2021/08/18 11:14:35;;;;;;;1.10;1.00;;;;;;;16.93;100.00;101043.31;6250249;28;20049;-77
2021/08/18 11:17:37;;;;;;;1.10;0.90;;;;;;;17.10;100.00;101043.84;6250719;28;20046;-79
2021/08/18 11:20:46;;;;;;;1.63;1.00;;;;;;;17.27;100.00;101047.91;6251027;28;20049;-78
2021/08/18 11:23:54;;;;;;;1.17;1.08;;;;;;;17.52;100.00;101038.88;6250372;28;20060;-76
2021/08/18 11:26:56;;;;;;;1.10;0.90;;;;;;;17.68;94.97;101034.91;6249461;28;20046;-80
2021/08/18 11:29:57;;;;;;;1.05;0.65;;;;;;;17.64;96.46;101038.75;6250020;28;20401;-78
2021/08/18 11:33:19;;;;;;;1.30;1.20;;;;;;;17.65;93.13;101039.59;6251100;28;20060;-78
2021/08/18 11:36:20;;;;;;;1.10;1.00;;;;;;;17.62;94.70;101040.69;6249929;28;20535;-77
2021/08/18 11:39:23;;;;;;;2.03;1.00;;;;;;;17.71;90.42;101033.78;6253910;28;20393;-81
2021/08/18 11:42:25;;;;;;;1.13;0.90;;;;;;;17.81;90.83;101042.78;6252349;28;20060;-77
2021/08/18 11:45:26;;;;;;;0.70;0.70;;;;;;;17.83;87.08;101034.69;6253772;28;20128;-81
2021/08/18 11:48:27;;;;;;;0.90;0.90;;;;;;;17.81;89.92;101036.63;6246812;28;20046;-79
2021/08/18 11:51:29;;;;;;;1.42;0.93;;;;;;;17.83;88.02;101038.19;6205619;28;20494;-80
2021/08/18 11:54:32;;;;;;;0.65;0.65;;;;;;;17.77;87.78;101043.16;6203312;28;20050;-82
2021/08/18 11:57:34;;;;;;;0.57;0.57;;;;;;;17.57;90.47;101042.00;6203815;28;20425;-77
2021/08/18 12:00:36;;;;;;;0.90;0.60;;;;;;;17.45;90.98;101055.28;6202827;28;20050;-74
2021/08/18 12:03:38;;;;;;;1.02;0.70;;;;;;;17.40;91.59;101046.84;6199504;28;20058;-79
2021/08/18 12:06:39;;;;;;;0.82;0.75;;;;;;;17.45;91.54;101042.00;6201305;28;20057;-79
2021/08/18 12:09:44;;;;;;;0.70;0.63;;;;;;;17.56;90.55;101032.34;6205572;28;20065;-77
2021/08/18 12:12:46;;;;;;;0.90;0.75;;;;;;;17.59;90.38;101038.28;6201036;28;20046;-79
2021/08/18 12:15:50;;;;;;;0.85;0.77;;;;;;;17.70;88.02;101042.72;6201965;28;20513;-77
2021/08/18 12:18:51;;;;;;;1.65;0.80;;;;;;;17.77;86.16;101035.16;6201248;28;20054;-80
2021/08/18 12:22:05;;;;;;;0.65;0.60;;;;;;;17.86;85.62;101045.94;6203012;28;20054;-79
2021/08/18 12:25:09;;;;;;;0.73;0.73;;;;;;;17.88;86.45;101038.66;6230748;28;20497;-77
2021/08/18 12:28:15;;;;;;;1.05;0.88;;;;;;;18.04;85.04;101030.31;6248600;28;20048;-80
2021/08/18 12:31:17;;;;;;;1.48;1.15;;;;;;;18.03;86.47;101035.75;6244249;28;20049;-78
2021/08/18 12:34:30;;;;;;;0.77;0.77;;;;;;;18.08;87.68;101034.44;6250313;28;20061;-79
2021/08/18 12:37:35;;;;;;;1.15;1.05;;;;;;;18.08;88.64;101021.13;6250567;28;20148;-80
2021/08/18 12:40:38;;;;;;;1.10;0.90;;;;;;;18.09;88.51;101025.47;6245426;28;20057;-81
2021/08/18 12:43:39;;;;;;;1.65;1.00;;;;;;;18.00;89.35;101029.72;6232167;28;20045;-79
2021/08/18 12:46:43;;;;;;;1.50;1.08;;;;;;;18.00;88.94;101029.72;6223471;28;20049;-74
2021/08/18 12:49:49;;;;;;;2.03;1.00;;;;;;;18.04;87.68;101025.00;6223533;28;20050;-79
2021/08/18 12:52:50;;;;;;;2.65;1.17;;;;;;;18.11;87.59;101018.19;6223707;28;20054;-79
2021/08/18 12:55:53;;;;;;;1.45;0.90;;;;;;;18.18;87.07;101024.72;6223560;28;20050;-81
2021/08/18 12:58:54;;;;;;;1.50;1.08;;;;;;;18.11;88.36;101012.88;6270412;22;20056;-76
2021/08/18 13:01:56;;;;;;;1.77;1.23;;;;;;;18.22;85.65;101006.72;6254585;28;20049;-74
2021/08/18 13:04:57;;;;;;;2.00;1.25;;;;;;;18.14;84.85;101009.97;6254629;28;20524;-77
2021/08/18 13:07:58;;;;;;;0.93;0.88;;;;;;;18.27;84.64;101007.19;6246181;28;20046;-77
2021/08/18 13:11:01;;;;;;;1.50;1.08;;;;;;;18.28;82.19;101005.34;6247266;28;20420;-76
2021/08/18 13:14:03;;;;;;;0.88;0.77;;;;;;;18.20;83.33;101004.16;6249159;28;20052;-79
2021/08/18 13:17:04;;;;;;;0.90;0.60;;;;;;;18.23;81.80;100997.75;6255522;28;20057;-80
2021/08/18 13:20:06;;;;;;;2.13;1.02;;;;;;;18.18;82.83;100990.16;6247130;28;20542;-79
2021/08/18 13:23:08;;;;;;;1.02;0.90;;;;;;;18.16;83.47;100993.88;6246645;28;20045;-76
2021/08/18 13:26:11;;;;;;;1.52;0.77;;;;;;;18.17;83.56;100995.59;6262821;28;20048;-75
2021/08/18 13:29:13;;;;;;;0.82;0.80;;;;;;;18.20;80.21;100996.16;6248827;28;20056;-78
2021/08/18 13:32:17;;;;;;;1.50;0.80;;;;;;;18.20;79.93;100998.00;6240061;28;20054;-78
2021/08/18 13:35:18;;;;;;;0.80;0.80;;;;;;;18.10;80.09;100997.06;6222057;28;20066;-75
2021/08/18 13:38:20;;;;;;;1.02;0.80;;;;;;;18.10;79.42;100997.91;6241002;28;20050;-77
2021/08/18 13:41:22;;;;;;;1.23;0.95;;;;;;;18.16;79.49;100997.38;6247641;28;20053;-76
2021/08/18 13:44:24;;;;;;;1.60;0.95;;;;;;;18.21;79.60;100995.22;6243436;28;20052;-76
2021/08/18 13:47:25;;;;;;;0.98;0.80;;;;;;;18.24;80.49;100986.97;6231829;28;20046;-74
2021/08/18 13:50:27;;;;;;;1.63;0.90;;;;;;;18.38;79.81;100985.00;6233083;28;20046;-77
2021/08/18 13:53:29;;;;;;;1.33;1.00;;;;;;;18.40;78.88;100981.25;6235903;28;20128;-81
2021/08/18 13:56:32;;;;;;;1.10;1.00;;;;;;;18.52;77.05;100979.38;6232455;28;20048;-78
2021/08/18 13:59:34;;;;;;;1.17;0.80;;;;;;;18.58;78.38;100978.88;6238553;28;20041;-77
2021/08/18 14:02:36;;;;;;;1.42;0.75;;;;;;;18.57;79.23;100966.53;6238214;28;20056;-75